sensor_id;sensor_type;location;lat;lon;timestamp;temperature;humidity
10263;DHT22;5177;50.068;8.156;2024-03-02T00:01:24;5.20;99.90
10263;DHT22;5177;50.068;8.156;2024-03-02T00:03:49;5.20;2.10
10263;DHT22;5177;50.068;8.156;2024-03-02T00:06:15;5.20;1.00
10263;DHT22;5177;50.068;8.156;2024-03-02T00:08:41;5.20;71.00
10263;DHT22;5177;50.068;8.156;2024-03-02T00:11:06;5.20;1.00
10263;DHT22;5177;50.068;8.156;2024-03-02T00:13:32;5.10;1.00
10263;DHT22;5177;50.068;8.156;2024-03-02T00:15:59;5.10;1.00
10263;DHT22;5177;50.068;8.156;2024-03-02T00:18:31;5.10;1.00
10263;DHT22;5177;50.068;8.156;2024-03-02T00:20:57;5.10;1.00
10263;DHT22;5177;50.068;8.156;2024-03-02T00:23:23;5.10;1.00
10263;DHT22;5177;50.068;8.156;2024-03-02T00:25:54;5.10;99.90
10263;DHT22;5177;50.068;8.156;2024-03-02T00:28:21;5.10;1.00
10263;DHT22;5177;50.068;8.156;2024-03-02T00:31:06;5.00;1.00
10263;DHT22;5177;50.068;8.156;2024-03-02T00:33:38;5.00;1.00
10263;DHT22;5177;50.068;8.156;2024-03-02T00:36:04;5.00;99.90
10263;DHT22;5177;50.068;8.156;2024-03-02T00:38:30;4.90;99.90
10263;DHT22;5177;50.068;8.156;2024-03-02T00:40:57;5.00;99.90
10263;DHT22;5177;50.068;8.156;2024-03-02T00:45:54;5.00;99.90
10263;DHT22;5177;50.068;8.156;2024-03-02T00:48:20;4.90;99.90
10263;DHT22;5177;50.068;8.156;2024-03-02T00:50:46;4.90;1.00
10263;DHT22;5177;50.068;8.156;2024-03-02T00:53:11;4.90;99.90
10263;DHT22;5177;50.068;8.156;2024-03-02T00:55:37;4.90;99.90
10263;DHT22;5177;50.068;8.156;2024-03-02T00:58:03;4.90;99.90
10263;DHT22;5177;50.068;8.156;2024-03-02T01:00:29;4.90;99.90
10263;DHT22;5177;50.068;8.156;2024-03-02T01:02:54;4.90;99.90
10263;DHT22;5177;50.068;8.156;2024-03-02T01:05:20;4.80;34.80
10263;DHT22;5177;50.068;8.156;2024-03-02T01:07:45;4.80;99.90
10263;DHT22;5177;50.068;8.156;2024-03-02T01:10:11;4.70;1.00
10263;DHT22;5177;50.068;8.156;2024-03-02T01:12:36;4.80;99.90
10263;DHT22;5177;50.068;8.156;2024-03-02T01:15:02;4.70;99.90
10263;DHT22;5177;50.068;8.156;2024-03-02T01:17:31;4.70;1.00
10263;DHT22;5177;50.068;8.156;2024-03-02T01:19:56;4.70;99.90
10263;DHT22;5177;50.068;8.156;2024-03-02T01:22:22;4.70;99.90
10263;DHT22;5177;50.068;8.156;2024-03-02T01:24:50;4.60;99.90
10263;DHT22;5177;50.068;8.156;2024-03-02T01:27:16;4.60;99.90
10263;DHT22;5177;50.068;8.156;2024-03-02T01:29:41;4.60;1.00
10263;DHT22;5177;50.068;8.156;2024-03-02T01:32:07;4.60;1.00
10263;DHT22;5177;50.068;8.156;2024-03-02T01:34:32;4.60;1.00
10263;DHT22;5177;50.068;8.156;2024-03-02T01:36:58;4.60;1.00
10263;DHT22;5177;50.068;8.156;2024-03-02T01:39:23;4.60;1.00
10263;DHT22;5177;50.068;8.156;2024-03-02T01:41:49;4.60;1.00
10263;DHT22;5177;50.068;8.156;2024-03-02T01:44:14;4.60;1.00
10263;DHT22;5177;50.068;8.156;2024-03-02T01:46:40;4.60;1.00
10263;DHT22;5177;50.068;8.156;2024-03-02T01:49:05;4.60;1.00
10263;DHT22;5177;50.068;8.156;2024-03-02T01:51:31;4.60;1.00
10263;DHT22;5177;50.068;8.156;2024-03-02T01:53:57;4.60;1.00
10263;DHT22;5177;50.068;8.156;2024-03-02T01:56:22;4.60;1.00
10263;DHT22;5177;50.068;8.156;2024-03-02T01:58:48;4.60;1.00
10263;DHT22;5177;50.068;8.156;2024-03-02T02:01:13;4.50;1.00
10263;DHT22;5177;50.068;8.156;2024-03-02T02:03:48;4.50;1.00
10263;DHT22;5177;50.068;8.156;2024-03-02T02:06:13;4.50;1.00
10263;DHT22;5177;50.068;8.156;2024-03-02T02:08:39;4.50;1.00
10263;DHT22;5177;50.068;8.156;2024-03-02T02:11:04;4.60;1.00
10263;DHT22;5177;50.068;8.156;2024-03-02T02:13:30;4.60;1.00
10263;DHT22;5177;50.068;8.156;2024-03-02T02:15:55;4.60;1.00
10263;DHT22;5177;50.068;8.156;2024-03-02T02:18:29;4.60;19.00
10263;DHT22;5177;50.068;8.156;2024-03-02T02:20:54;4.60;47.70
10263;DHT22;5177;50.068;8.156;2024-03-02T02:23:20;4.60;70.30
10263;DHT22;5177;50.068;8.156;2024-03-02T02:25:45;4.60;53.90
10263;DHT22;5177;50.068;8.156;2024-03-02T02:28:11;4.60;26.20
10263;DHT22;5177;50.068;8.156;2024-03-02T02:30:36;4.50;1.00
10263;DHT22;5177;50.068;8.156;2024-03-02T02:33:02;4.50;38.00
10263;DHT22;5177;50.068;8.156;2024-03-02T02:35:27;4.50;58.30
10263;DHT22;5177;50.068;8.156;2024-03-02T02:37:54;4.50;99.90
10263;DHT22;5177;50.068;8.156;2024-03-02T02:40:19;4.50;99.90
10263;DHT22;5177;50.068;8.156;2024-03-02T02:42:45;4.50;99.90
10263;DHT22;5177;50.068;8.156;2024-03-02T02:45:11;4.50;90.90
10263;DHT22;5177;50.068;8.156;2024-03-02T02:47:38;4.50;94.10
10263;DHT22;5177;50.068;8.156;2024-03-02T02:50:04;4.40;99.90
10263;DHT22;5177;50.068;8.156;2024-03-02T02:52:33;4.40;99.90
10263;DHT22;5177;50.068;8.156;2024-03-02T02:54:59;4.40;99.90
10263;DHT22;5177;50.068;8.156;2024-03-02T02:57:24;4.40;99.90
10263;DHT22;5177;50.068;8.156;2024-03-02T02:59:50;4.40;99.90
10263;DHT22;5177;50.068;8.156;2024-03-02T03:02:15;4.40;99.90
10263;DHT22;5177;50.068;8.156;2024-03-02T03:04:41;4.40;99.90
10263;DHT22;5177;50.068;8.156;2024-03-02T03:07:06;4.40;99.90
10263;DHT22;5177;50.068;8.156;2024-03-02T03:09:32;4.30;99.90
10263;DHT22;5177;50.068;8.156;2024-03-02T03:11:57;4.30;99.90
10263;DHT22;5177;50.068;8.156;2024-03-02T03:14:23;4.30;99.90
10263;DHT22;5177;50.068;8.156;2024-03-02T03:16:48;4.30;99.90
10263;DHT22;5177;50.068;8.156;2024-03-02T03:19:15;4.30;99.90
10263;DHT22;5177;50.068;8.156;2024-03-02T03:21:41;4.20;99.90
10263;DHT22;5177;50.068;8.156;2024-03-02T03:24:06;4.20;99.90
10263;DHT22;5177;50.068;8.156;2024-03-02T03:26:32;4.20;99.90
10263;DHT22;5177;50.068;8.156;2024-03-02T03:28:57;4.20;99.90
10263;DHT22;5177;50.068;8.156;2024-03-02T03:31:23;4.20;99.90
10263;DHT22;5177;50.068;8.156;2024-03-02T03:33:48;4.20;99.90
10263;DHT22;5177;50.068;8.156;2024-03-02T03:36:14;4.20;99.90
10263;DHT22;5177;50.068;8.156;2024-03-02T03:38:39;4.20;99.90
10263;DHT22;5177;50.068;8.156;2024-03-02T03:41:05;4.20;99.90
10263;DHT22;5177;50.068;8.156;2024-03-02T03:46:33;4.20;99.90
10263;DHT22;5177;50.068;8.156;2024-03-02T03:48:59;4.20;99.90
10263;DHT22;5177;50.068;8.156;2024-03-02T03:51:24;4.20;99.90
10263;DHT22;5177;50.068;8.156;2024-03-02T03:53:50;4.10;99.90
10263;DHT22;5177;50.068;8.156;2024-03-02T03:59:09;4.10;99.90
10263;DHT22;5177;50.068;8.156;2024-03-02T04:01:35;4.00;99.90
10263;DHT22;5177;50.068;8.156;2024-03-02T04:04:00;4.00;99.90
10263;DHT22;5177;50.068;8.156;2024-03-02T04:06:28;3.90;99.90
10263;DHT22;5177;50.068;8.156;2024-03-02T04:08:54;4.00;99.90
10263;DHT22;5177;50.068;8.156;2024-03-02T04:11:19;3.80;99.90
10263;DHT22;5177;50.068;8.156;2024-03-02T04:13:45;3.80;99.90
10263;DHT22;5177;50.068;8.156;2024-03-02T04:16:10;3.80;99.90
10263;DHT22;5177;50.068;8.156;2024-03-02T04:18:36;3.80;99.90
10263;DHT22;5177;50.068;8.156;2024-03-02T04:21:01;3.70;99.90
10263;DHT22;5177;50.068;8.156;2024-03-02T04:23:27;3.80;99.90
10263;DHT22;5177;50.068;8.156;2024-03-02T04:25:53;3.70;99.90
10263;DHT22;5177;50.068;8.156;2024-03-02T04:28:18;3.70;99.90
10263;DHT22;5177;50.068;8.156;2024-03-02T04:30:43;3.70;99.90
10263;DHT22;5177;50.068;8.156;2024-03-02T04:33:09;3.70;99.90
10263;DHT22;5177;50.068;8.156;2024-03-02T04:35:35;3.70;99.90
10263;DHT22;5177;50.068;8.156;2024-03-02T04:38:01;3.60;99.90
10263;DHT22;5177;50.068;8.156;2024-03-02T04:40:26;3.60;99.90
10263;DHT22;5177;50.068;8.156;2024-03-02T04:42:52;3.60;99.90
10263;DHT22;5177;50.068;8.156;2024-03-02T04:45:17;3.60;99.90
10263;DHT22;5177;50.068;8.156;2024-03-02T04:47:43;3.60;99.90
10263;DHT22;5177;50.068;8.156;2024-03-02T04:50:08;3.60;99.90
10263;DHT22;5177;50.068;8.156;2024-03-02T04:52:34;3.60;99.90
10263;DHT22;5177;50.068;8.156;2024-03-02T04:54:59;3.60;99.90
10263;DHT22;5177;50.068;8.156;2024-03-02T04:57:43;3.60;99.90
10263;DHT22;5177;50.068;8.156;2024-03-02T05:00:09;3.60;99.90
10263;DHT22;5177;50.068;8.156;2024-03-02T05:02:35;3.60;99.90
10263;DHT22;5177;50.068;8.156;2024-03-02T05:05:00;3.70;99.90
10263;DHT22;5177;50.068;8.156;2024-03-02T05:07:26;3.70;99.90
10263;DHT22;5177;50.068;8.156;2024-03-02T05:09:51;3.70;99.90
10263;DHT22;5177;50.068;8.156;2024-03-02T05:12:17;3.80;99.90
10263;DHT22;5177;50.068;8.156;2024-03-02T05:15:01;3.80;99.90
10263;DHT22;5177;50.068;8.156;2024-03-02T05:17:27;3.90;99.90
10263;DHT22;5177;50.068;8.156;2024-03-02T05:22:46;3.90;99.90
10263;DHT22;5177;50.068;8.156;2024-03-02T05:25:12;4.00;99.90
10263;DHT22;5177;50.068;8.156;2024-03-02T05:27:37;4.00;99.90
10263;DHT22;5177;50.068;8.156;2024-03-02T05:30:03;4.10;99.90
10263;DHT22;5177;50.068;8.156;2024-03-02T05:32:31;4.10;99.90
10263;DHT22;5177;50.068;8.156;2024-03-02T05:34:57;4.20;99.90
10263;DHT22;5177;50.068;8.156;2024-03-02T05:37:22;4.20;99.90
10263;DHT22;5177;50.068;8.156;2024-03-02T05:39:48;4.30;99.90
10263;DHT22;5177;50.068;8.156;2024-03-02T05:42:13;4.20;99.90
10263;DHT22;5177;50.068;8.156;2024-03-02T05:44:39;4.20;99.90
10263;DHT22;5177;50.068;8.156;2024-03-02T05:47:05;4.30;99.90
10263;DHT22;5177;50.068;8.156;2024-03-02T05:49:34;4.30;94.00
10263;DHT22;5177;50.068;8.156;2024-03-02T05:51:59;4.30;91.50
10263;DHT22;5177;50.068;8.156;2024-03-02T05:54:25;4.30;98.40
10263;DHT22;5177;50.068;8.156;2024-03-02T05:56:50;4.30;57.30
10263;DHT22;5177;50.068;8.156;2024-03-02T05:59:16;4.30;53.20
10263;DHT22;5177;50.068;8.156;2024-03-02T06:01:43;4.30;32.00
10263;DHT22;5177;50.068;8.156;2024-03-02T06:04:09;4.30;92.80
10263;DHT22;5177;50.068;8.156;2024-03-02T06:06:36;4.40;49.90
10263;DHT22;5177;50.068;8.156;2024-03-02T06:09:02;4.40;45.40
10263;DHT22;5177;50.068;8.156;2024-03-02T06:11:30;4.40;41.40
10263;DHT22;5177;50.068;8.156;2024-03-02T06:13:56;4.40;99.90
10263;DHT22;5177;50.068;8.156;2024-03-02T06:16:21;4.40;99.90
10263;DHT22;5177;50.068;8.156;2024-03-02T06:18:47;4.50;99.90
10263;DHT22;5177;50.068;8.156;2024-03-02T06:21:12;4.50;99.90
10263;DHT22;5177;50.068;8.156;2024-03-02T06:23:38;4.50;99.90
10263;DHT22;5177;50.068;8.156;2024-03-02T06:26:03;4.50;73.30
10263;DHT22;5177;50.068;8.156;2024-03-02T06:28:29;4.60;97.80
10263;DHT22;5177;50.068;8.156;2024-03-02T06:30:54;4.60;84.00
10263;DHT22;5177;50.068;8.156;2024-03-02T06:33:20;4.60;41.60
10263;DHT22;5177;50.068;8.156;2024-03-02T06:35:45;4.60;52.10
10263;DHT22;5177;50.068;8.156;2024-03-02T06:38:11;4.50;34.60
10263;DHT22;5177;50.068;8.156;2024-03-02T06:40:36;4.60;56.90
10263;DHT22;5177;50.068;8.156;2024-03-02T06:43:04;4.50;3.70
10263;DHT22;5177;50.068;8.156;2024-03-02T06:45:30;4.50;6.50
10263;DHT22;5177;50.068;8.156;2024-03-02T06:47:56;4.50;6.60
10263;DHT22;5177;50.068;8.156;2024-03-02T06:50:21;4.50;29.60
10263;DHT22;5177;50.068;8.156;2024-03-02T06:52:47;4.60;53.30
10263;DHT22;5177;50.068;8.156;2024-03-02T06:55:12;4.60;99.90
10263;DHT22;5177;50.068;8.156;2024-03-02T06:57:38;4.70;99.90
10263;DHT22;5177;50.068;8.156;2024-03-02T07:00:04;4.70;99.90
10263;DHT22;5177;50.068;8.156;2024-03-02T07:02:30;4.80;99.90
10263;DHT22;5177;50.068;8.156;2024-03-02T07:04:56;4.80;99.90
10263;DHT22;5177;50.068;8.156;2024-03-02T07:07:21;4.90;99.90
10263;DHT22;5177;50.068;8.156;2024-03-02T07:09:47;4.90;99.90
10263;DHT22;5177;50.068;8.156;2024-03-02T07:12:13;5.00;99.90
10263;DHT22;5177;50.068;8.156;2024-03-02T07:14:38;5.10;99.90
10263;DHT22;5177;50.068;8.156;2024-03-02T07:17:36;5.10;99.90
10263;DHT22;5177;50.068;8.156;2024-03-02T07:20:02;5.20;99.90
10263;DHT22;5177;50.068;8.156;2024-03-02T07:22:29;5.30;99.90
10263;DHT22;5177;50.068;8.156;2024-03-02T07:24:55;5.40;99.90
10263;DHT22;5177;50.068;8.156;2024-03-02T07:27:20;5.40;60.00
10263;DHT22;5177;50.068;8.156;2024-03-02T07:29:46;5.40;90.80
10263;DHT22;5177;50.068;8.156;2024-03-02T07:32:11;5.70;84.10
10263;DHT22;5177;50.068;8.156;2024-03-02T07:34:37;5.80;1.00
10263;DHT22;5177;50.068;8.156;2024-03-02T07:37:03;5.90;1.00
10263;DHT22;5177;50.068;8.156;2024-03-02T07:39:28;6.00;1.00
10263;DHT22;5177;50.068;8.156;2024-03-02T07:41:54;6.10;1.00
10263;DHT22;5177;50.068;8.156;2024-03-02T07:44:20;6.10;1.00
10263;DHT22;5177;50.068;8.156;2024-03-02T07:46:46;6.20;1.00
10263;DHT22;5177;50.068;8.156;2024-03-02T07:49:12;6.10;1.00
10263;DHT22;5177;50.068;8.156;2024-03-02T07:51:39;6.10;1.00
10263;DHT22;5177;50.068;8.156;2024-03-02T07:54:04;6.20;99.90
10263;DHT22;5177;50.068;8.156;2024-03-02T07:56:30;6.20;1.00
10263;DHT22;5177;50.068;8.156;2024-03-02T07:58:55;6.20;1.00
10263;DHT22;5177;50.068;8.156;2024-03-02T08:01:22;6.30;1.00
10263;DHT22;5177;50.068;8.156;2024-03-02T08:03:48;6.30;1.00
10263;DHT22;5177;50.068;8.156;2024-03-02T08:06:15;6.30;1.00
10263;DHT22;5177;50.068;8.156;2024-03-02T08:08:41;6.30;1.00
10263;DHT22;5177;50.068;8.156;2024-03-02T08:11:06;6.40;1.00
10263;DHT22;5177;50.068;8.156;2024-03-02T08:13:32;6.50;1.00
10263;DHT22;5177;50.068;8.156;2024-03-02T08:15:57;6.50;1.00
10263;DHT22;5177;50.068;8.156;2024-03-02T08:18:23;6.60;1.00
10263;DHT22;5177;50.068;8.156;2024-03-02T08:20:49;6.60;1.00
10263;DHT22;5177;50.068;8.156;2024-03-02T08:23:14;6.70;99.90
10263;DHT22;5177;50.068;8.156;2024-03-02T08:25:40;6.80;99.90
10263;DHT22;5177;50.068;8.156;2024-03-02T08:28:05;6.90;1.00
10263;DHT22;5177;50.068;8.156;2024-03-02T08:30:31;7.10;1.00
10263;DHT22;5177;50.068;8.156;2024-03-02T08:32:56;7.10;99.90
10263;DHT22;5177;50.068;8.156;2024-03-02T08:35:22;7.20;1.00
10263;DHT22;5177;50.068;8.156;2024-03-02T08:37:48;7.20;1.00
10263;DHT22;5177;50.068;8.156;2024-03-02T08:40:14;7.40;1.00
10263;DHT22;5177;50.068;8.156;2024-03-02T08:42:39;7.40;1.00
10263;DHT22;5177;50.068;8.156;2024-03-02T08:45:06;7.60;1.00
10263;DHT22;5177;50.068;8.156;2024-03-02T08:47:32;7.70;99.90
10263;DHT22;5177;50.068;8.156;2024-03-02T08:49:58;7.70;1.00
10263;DHT22;5177;50.068;8.156;2024-03-02T08:52:24;7.80;1.00
10263;DHT22;5177;50.068;8.156;2024-03-02T08:54:49;7.90;1.00
10263;DHT22;5177;50.068;8.156;2024-03-02T08:57:15;8.00;1.00
10263;DHT22;5177;50.068;8.156;2024-03-02T08:59:53;8.00;99.90
10263;DHT22;5177;50.068;8.156;2024-03-02T09:02:18;8.20;99.90
10263;DHT22;5177;50.068;8.156;2024-03-02T09:04:49;8.20;1.00
10263;DHT22;5177;50.068;8.156;2024-03-02T09:07:14;8.20;99.90
10263;DHT22;5177;50.068;8.156;2024-03-02T09:09:40;8.10;1.00
10263;DHT22;5177;50.068;8.156;2024-03-02T09:12:06;8.30;1.00
10263;DHT22;5177;50.068;8.156;2024-03-02T09:14:32;8.30;1.00
10263;DHT22;5177;50.068;8.156;2024-03-02T09:16:57;8.30;99.90
10263;DHT22;5177;50.068;8.156;2024-03-02T09:19:23;8.40;99.90
10263;DHT22;5177;50.068;8.156;2024-03-02T09:21:48;8.40;91.10
10263;DHT22;5177;50.068;8.156;2024-03-02T09:24:15;8.50;1.00
10263;DHT22;5177;50.068;8.156;2024-03-02T09:26:41;8.50;99.90
10263;DHT22;5177;50.068;8.156;2024-03-02T09:29:06;8.60;99.90
10263;DHT22;5177;50.068;8.156;2024-03-02T09:31:32;8.70;99.90
10263;DHT22;5177;50.068;8.156;2024-03-02T09:33:57;8.70;99.90
10263;DHT22;5177;50.068;8.156;2024-03-02T09:36:22;8.80;1.00
10263;DHT22;5177;50.068;8.156;2024-03-02T09:38:48;8.80;1.50
10263;DHT22;5177;50.068;8.156;2024-03-02T09:41:14;8.90;99.90
10263;DHT22;5177;50.068;8.156;2024-03-02T09:43:40;8.80;99.90
10263;DHT22;5177;50.068;8.156;2024-03-02T09:46:07;8.90;1.00
10263;DHT22;5177;50.068;8.156;2024-03-02T09:48:37;8.90;71.90
10263;DHT22;5177;50.068;8.156;2024-03-02T09:51:02;9.00;22.70
10263;DHT22;5177;50.068;8.156;2024-03-02T09:53:31;9.00;42.90
10263;DHT22;5177;50.068;8.156;2024-03-02T09:55:56;8.90;36.30
10263;DHT22;5177;50.068;8.156;2024-03-02T09:58:22;9.00;1.00
10263;DHT22;5177;50.068;8.156;2024-03-02T10:00:47;9.00;1.00
10263;DHT22;5177;50.068;8.156;2024-03-02T10:03:14;9.10;1.00
10263;DHT22;5177;50.068;8.156;2024-03-02T10:05:40;9.10;1.00
10263;DHT22;5177;50.068;8.156;2024-03-02T10:08:05;9.20;1.00
10263;DHT22;5177;50.068;8.156;2024-03-02T10:10:35;9.20;1.00
10263;DHT22;5177;50.068;8.156;2024-03-02T10:13:04;9.30;99.90
10263;DHT22;5177;50.068;8.156;2024-03-02T10:15:33;9.40;1.00
10263;DHT22;5177;50.068;8.156;2024-03-02T10:17:58;9.50;99.90
10263;DHT22;5177;50.068;8.156;2024-03-02T10:20:24;9.50;99.90
10263;DHT22;5177;50.068;8.156;2024-03-02T10:22:50;9.60;99.90
10263;DHT22;5177;50.068;8.156;2024-03-02T10:25:31;9.70;99.90
10263;DHT22;5177;50.068;8.156;2024-03-02T10:27:57;9.90;99.90
10263;DHT22;5177;50.068;8.156;2024-03-02T10:30:23;10.00;99.90
10263;DHT22;5177;50.068;8.156;2024-03-02T10:32:49;10.20;12.30
10263;DHT22;5177;50.068;8.156;2024-03-02T10:35:15;10.30;27.70
10263;DHT22;5177;50.068;8.156;2024-03-02T10:37:41;10.30;47.90
10263;DHT22;5177;50.068;8.156;2024-03-02T10:40:08;10.40;11.70
10263;DHT22;5177;50.068;8.156;2024-03-02T10:42:35;10.50;1.00
10263;DHT22;5177;50.068;8.156;2024-03-02T10:45:02;10.70;1.00
10263;DHT22;5177;50.068;8.156;2024-03-02T10:47:28;10.70;1.00
10263;DHT22;5177;50.068;8.156;2024-03-02T10:49:55;10.70;1.00
10263;DHT22;5177;50.068;8.156;2024-03-02T10:52:37;10.70;1.00
10263;DHT22;5177;50.068;8.156;2024-03-02T10:55:03;10.70;1.00
10263;DHT22;5177;50.068;8.156;2024-03-02T10:57:41;10.80;1.00
10263;DHT22;5177;50.068;8.156;2024-03-02T11:00:07;10.80;1.00
10263;DHT22;5177;50.068;8.156;2024-03-02T11:02:54;10.90;1.00
10263;DHT22;5177;50.068;8.156;2024-03-02T11:05:34;10.80;1.00
10263;DHT22;5177;50.068;8.156;2024-03-02T11:08:02;10.90;1.00
10263;DHT22;5177;50.068;8.156;2024-03-02T11:10:34;10.90;1.00
10263;DHT22;5177;50.068;8.156;2024-03-02T11:13:02;11.00;1.00
10263;DHT22;5177;50.068;8.156;2024-03-02T11:15:27;11.00;1.00
10263;DHT22;5177;50.068;8.156;2024-03-02T11:17:53;11.10;99.90
10263;DHT22;5177;50.068;8.156;2024-03-02T11:20:19;11.20;99.90
10263;DHT22;5177;50.068;8.156;2024-03-02T11:22:45;11.10;99.90
10263;DHT22;5177;50.068;8.156;2024-03-02T11:25:26;11.20;99.90
10263;DHT22;5177;50.068;8.156;2024-03-02T11:32:59;11.40;99.90
10263;DHT22;5177;50.068;8.156;2024-03-02T11:35:25;11.50;99.90
10263;DHT22;5177;50.068;8.156;2024-03-02T11:37:51;11.70;99.90
10263;DHT22;5177;50.068;8.156;2024-03-02T11:40:21;11.90;95.10
10263;DHT22;5177;50.068;8.156;2024-03-02T11:42:47;12.20;34.60
10263;DHT22;5177;50.068;8.156;2024-03-02T11:45:12;12.20;1.00
10263;DHT22;5177;50.068;8.156;2024-03-02T11:47:41;12.30;1.00
10263;DHT22;5177;50.068;8.156;2024-03-02T11:50:11;12.30;1.00
10263;DHT22;5177;50.068;8.156;2024-03-02T11:52:37;12.40;1.00
10263;DHT22;5177;50.068;8.156;2024-03-02T11:55:03;12.50;1.00
10263;DHT22;5177;50.068;8.156;2024-03-02T11:57:30;12.50;1.00
10263;DHT22;5177;50.068;8.156;2024-03-02T11:59:56;12.60;1.00
10263;DHT22;5177;50.068;8.156;2024-03-02T12:02:23;12.60;1.00
10263;DHT22;5177;50.068;8.156;2024-03-02T12:04:49;12.70;1.00
10263;DHT22;5177;50.068;8.156;2024-03-02T12:07:18;12.70;1.00
10263;DHT22;5177;50.068;8.156;2024-03-02T12:09:44;13.00;1.00
10263;DHT22;5177;50.068;8.156;2024-03-02T12:12:09;13.20;1.00
10263;DHT22;5177;50.068;8.156;2024-03-02T12:14:36;13.40;1.00
10263;DHT22;5177;50.068;8.156;2024-03-02T12:17:02;13.60;1.00
10263;DHT22;5177;50.068;8.156;2024-03-02T12:19:29;13.90;99.90
10263;DHT22;5177;50.068;8.156;2024-03-02T12:21:58;14.00;99.90
10263;DHT22;5177;50.068;8.156;2024-03-02T12:24:24;14.30;99.90
10263;DHT22;5177;50.068;8.156;2024-03-02T12:26:50;14.50;99.90
10263;DHT22;5177;50.068;8.156;2024-03-02T12:29:15;14.70;99.90
10263;DHT22;5177;50.068;8.156;2024-03-02T12:31:42;14.80;99.90
10263;DHT22;5177;50.068;8.156;2024-03-02T12:34:07;14.60;99.90
10263;DHT22;5177;50.068;8.156;2024-03-02T12:36:37;15.00;99.90
10263;DHT22;5177;50.068;8.156;2024-03-02T12:39:03;15.20;99.90
10263;DHT22;5177;50.068;8.156;2024-03-02T12:41:28;15.30;99.90
10263;DHT22;5177;50.068;8.156;2024-03-02T12:43:54;15.50;99.90
10263;DHT22;5177;50.068;8.156;2024-03-02T12:46:20;15.20;99.90
10263;DHT22;5177;50.068;8.156;2024-03-02T12:48:45;15.00;99.90
10263;DHT22;5177;50.068;8.156;2024-03-02T12:51:11;14.80;99.90
10263;DHT22;5177;50.068;8.156;2024-03-02T12:53:37;14.50;99.90
10263;DHT22;5177;50.068;8.156;2024-03-02T12:56:02;14.50;99.90
10263;DHT22;5177;50.068;8.156;2024-03-02T12:58:29;14.40;99.90
10263;DHT22;5177;50.068;8.156;2024-03-02T13:01:05;14.30;99.90
10263;DHT22;5177;50.068;8.156;2024-03-02T13:03:31;14.20;99.90
10263;DHT22;5177;50.068;8.156;2024-03-02T13:05:56;14.30;99.90
10263;DHT22;5177;50.068;8.156;2024-03-02T13:08:22;14.10;99.90
10263;DHT22;5177;50.068;8.156;2024-03-02T13:10:47;14.20;99.90
10263;DHT22;5177;50.068;8.156;2024-03-02T13:13:13;14.10;99.90
10263;DHT22;5177;50.068;8.156;2024-03-02T13:15:40;14.00;99.90
10263;DHT22;5177;50.068;8.156;2024-03-02T13:18:06;14.00;99.90
10263;DHT22;5177;50.068;8.156;2024-03-02T13:20:32;14.00;99.90
10263;DHT22;5177;50.068;8.156;2024-03-02T13:22:58;13.90;99.90
10263;DHT22;5177;50.068;8.156;2024-03-02T13:25:23;14.00;99.90
10263;DHT22;5177;50.068;8.156;2024-03-02T13:27:49;14.20;99.90
10263;DHT22;5177;50.068;8.156;2024-03-02T13:30:14;14.30;99.90
10263;DHT22;5177;50.068;8.156;2024-03-02T13:32:40;14.60;99.90
10263;DHT22;5177;50.068;8.156;2024-03-02T13:35:06;15.00;99.90
10263;DHT22;5177;50.068;8.156;2024-03-02T13:37:31;15.40;99.90
10263;DHT22;5177;50.068;8.156;2024-03-02T13:39:57;15.60;99.90
10263;DHT22;5177;50.068;8.156;2024-03-02T13:42:22;15.70;99.90
10263;DHT22;5177;50.068;8.156;2024-03-02T13:44:48;16.10;99.90
10263;DHT22;5177;50.068;8.156;2024-03-02T13:47:16;16.30;99.90
10263;DHT22;5177;50.068;8.156;2024-03-02T13:49:41;16.60;99.90
10263;DHT22;5177;50.068;8.156;2024-03-02T13:52:12;16.90;99.90
10263;DHT22;5177;50.068;8.156;2024-03-02T13:54:40;17.20;92.60
10263;DHT22;5177;50.068;8.156;2024-03-02T13:57:07;17.40;74.00
10263;DHT22;5177;50.068;8.156;2024-03-02T13:59:33;17.60;50.30
10263;DHT22;5177;50.068;8.156;2024-03-02T14:02:00;17.40;55.70
10263;DHT22;5177;50.068;8.156;2024-03-02T14:04:26;17.50;52.20
10263;DHT22;5177;50.068;8.156;2024-03-02T14:06:51;17.60;49.80
10263;DHT22;5177;50.068;8.156;2024-03-02T14:09:18;17.80;41.20
10263;DHT22;5177;50.068;8.156;2024-03-02T14:11:45;17.60;33.40
10263;DHT22;5177;50.068;8.156;2024-03-02T14:14:11;17.70;35.80
10263;DHT22;5177;50.068;8.156;2024-03-02T14:16:36;17.60;34.10
10263;DHT22;5177;50.068;8.156;2024-03-02T14:19:02;17.60;40.50
10263;DHT22;5177;50.068;8.156;2024-03-02T14:21:30;17.50;32.50
10263;DHT22;5177;50.068;8.156;2024-03-02T14:23:55;17.20;36.70
10263;DHT22;5177;50.068;8.156;2024-03-02T14:26:21;17.10;57.20
10263;DHT22;5177;50.068;8.156;2024-03-02T14:28:47;17.20;58.50
10263;DHT22;5177;50.068;8.156;2024-03-02T14:31:12;17.20;59.40
10263;DHT22;5177;50.068;8.156;2024-03-02T14:33:38;17.10;72.70
10263;DHT22;5177;50.068;8.156;2024-03-02T14:36:04;17.10;78.30
10263;DHT22;5177;50.068;8.156;2024-03-02T14:38:30;17.20;69.10
10263;DHT22;5177;50.068;8.156;2024-03-02T14:40:55;17.10;72.10
10263;DHT22;5177;50.068;8.156;2024-03-02T14:43:21;17.00;65.50
10263;DHT22;5177;50.068;8.156;2024-03-02T14:45:47;17.00;67.40
10263;DHT22;5177;50.068;8.156;2024-03-02T14:48:13;17.00;75.60
10263;DHT22;5177;50.068;8.156;2024-03-02T14:50:38;17.30;56.50
10263;DHT22;5177;50.068;8.156;2024-03-02T14:53:04;17.60;47.60
10263;DHT22;5177;50.068;8.156;2024-03-02T14:55:32;17.40;52.70
10263;DHT22;5177;50.068;8.156;2024-03-02T14:57:59;17.20;49.70
10263;DHT22;5177;50.068;8.156;2024-03-02T15:00:25;16.90;61.70
10263;DHT22;5177;50.068;8.156;2024-03-02T15:02:50;16.50;89.10
10263;DHT22;5177;50.068;8.156;2024-03-02T15:05:16;16.30;99.90
10263;DHT22;5177;50.068;8.156;2024-03-02T15:07:41;16.30;99.90
10263;DHT22;5177;50.068;8.156;2024-03-02T15:10:07;16.20;99.90
10263;DHT22;5177;50.068;8.156;2024-03-02T15:12:33;16.00;99.90
10263;DHT22;5177;50.068;8.156;2024-03-02T15:14:58;16.00;99.90
10263;DHT22;5177;50.068;8.156;2024-03-02T15:17:24;15.90;99.90
10263;DHT22;5177;50.068;8.156;2024-03-02T15:19:50;15.80;99.90
10263;DHT22;5177;50.068;8.156;2024-03-02T15:22:15;15.80;99.90
10263;DHT22;5177;50.068;8.156;2024-03-02T15:24:41;15.70;99.90
10263;DHT22;5177;50.068;8.156;2024-03-02T15:27:07;15.70;99.90
10263;DHT22;5177;50.068;8.156;2024-03-02T15:29:34;15.50;99.90
10263;DHT22;5177;50.068;8.156;2024-03-02T15:31:59;15.40;99.90
10263;DHT22;5177;50.068;8.156;2024-03-02T15:34:25;15.30;99.90
10263;DHT22;5177;50.068;8.156;2024-03-02T15:36:50;15.20;99.90
10263;DHT22;5177;50.068;8.156;2024-03-02T15:39:16;15.10;99.90
10263;DHT22;5177;50.068;8.156;2024-03-02T15:41:44;14.90;99.90
10263;DHT22;5177;50.068;8.156;2024-03-02T15:44:10;14.90;99.90
10263;DHT22;5177;50.068;8.156;2024-03-02T15:46:36;14.80;99.90
10263;DHT22;5177;50.068;8.156;2024-03-02T15:49:01;14.60;99.90
10263;DHT22;5177;50.068;8.156;2024-03-02T15:51:27;14.60;99.90
10263;DHT22;5177;50.068;8.156;2024-03-02T15:53:52;14.50;99.90
10263;DHT22;5177;50.068;8.156;2024-03-02T15:56:18;14.40;99.90
10263;DHT22;5177;50.068;8.156;2024-03-02T15:58:44;14.30;99.90
10263;DHT22;5177;50.068;8.156;2024-03-02T16:01:09;14.10;99.90
10263;DHT22;5177;50.068;8.156;2024-03-02T16:03:35;14.10;99.90
10263;DHT22;5177;50.068;8.156;2024-03-02T16:06:00;14.00;99.90
10263;DHT22;5177;50.068;8.156;2024-03-02T16:08:26;13.90;99.90
10263;DHT22;5177;50.068;8.156;2024-03-02T16:10:51;13.70;99.90